Tiempo atmosférico en la estación meteorológica de Vejer De La Frontera, Cádiz (160 m.)



Fecha
DESCASC
Temp. máxima en grados centígrados (hora)
DESCASC
Temp. mínima en grados centígrados (hora)
DESCASC
Temp. media en grados centígrados
DESCASC
Racha de viento máxima en m/sg (hora)
DESCASC
Velocidad máxima media en intervalos de 10 minutos(hora)
DESCASC
Precipitaciones diarias en mm
DESCASC
Precipitaciones de 00:00 a 06:00 en mm
DESCASC
Precipitaciones de 06:00 a 12:00 en mm
DESCASC
Precipitaciones de 12:00 a 18:00 en mm
DESCASC
Precipitaciones de 18:00 a 24:00 en mm
DESCASC
08-12-2019 18.4 (14:10) 12.6 (19:30) 15.5 7.22 (10:30) 4.17 (18:50) 0 0 0 0 0
07-12-2019 20.3 (15:40) 12.9 (07:40) 16.6 10.56 (01:10) 4.44 (01:10) 0 0 0 0 0
06-12-2019 18.4 (13:50) 13.5 (01:30) 15.9 12.22 (13:30) 5.56 (13:30) 0 0 0 0 0
05-12-2019 17.7 (14:00) 9.4 (00:00) 13.6 9.72 (23:59) 4.17 (23:59) 0.1 0 0.1 0 0
04-12-2019 15.4 (12:30) 11.7 (00:00) 13.5 8.61 (14:10) 4.44 (10:10) 0.1 0 0 0 0.1
03-12-2019 18.6 (16:10) 11.8 (00:00) 15.2 6.11 (02:10) 3.33 (23:40) 0.2 0.1 0.1 0 0
02-12-2019 15.9 (14:30) 11.4 (00:00) 13.6 10.28 (20:30) 4.44 (20:30) 10.3 0.1 0.7 4 5.5
01-12-2019 18 (14:10) 12.8 (00:00) 15.4 11.39 (15:10) 5.83 (16:30) 10.7 4.4 0.1 5 1.2
30-11-2019 20.6 (14:00) 12.7 (00:00) 16.7 6.39 (15:30) 3.89 (16:50) 0 0 0 0 0
29-11-2019 21.4 (15:40) 13.5 (00:00) 17.4 6.67 (07:20) 3.33 (21:10) 0 0 0 0 0
28-11-2019 20 (14:30) 12.9 (00:00) 16.4 5.83 (14:40) 3.33 (16:10) 0.3 0.2 0.1 0 0
27-11-2019 16.7 (15:40) 14.4 (00:00) 15.6 10.28 (01:20) 6.11 (01:20) 3 2.7 0.3 0 0
26-11-2019 19.5 (15:40) 15.6 (00:00) 17.6 10 (23:50) 5.56 (23:40) 2.1 0.4 1.7 0 0
25-11-2019 19 (16:10) 13 (00:00) 16 8.06 (14:30) 5 (16:30) 0 0 0 0 0
24-11-2019 16.6 (13:30) 10.6 (00:00) 13.6 7.5 (14:40) 4.17 (15:20) 0 0 0 0 0
23-11-2019 16.2 (14:10) 12 (00:00) 14.1 13.61 (06:30) 6.94 (06:40) 0.7 0 0.7 0 0
22-11-2019 17.7 (17:30) 14.8 (00:00) 16.3 20.28 (20:20) 11.67 (20:00) 20.7 9.2 6.1 0.4 5
21-11-2019 15.6 (12:00) 13.6 (00:00) 14.6 11.11 (02:50) 5.83 (04:30) 19.5 2.7 3.6 12.2 1
20-11-2019 13.8 (23:59) 10.1 (00:00) 12 15.56 (13:30) 6.94 (14:10) 4.8 0 2 2.8 0
19-11-2019 16.1 (13:50) 11 (00:00) 13.6 6.39 (14:20) 3.89 (14:10) 0 0 0 0 0
18-11-2019 15.4 (01:20) 9.3 (00:00) 12.3 16.94 (03:40) 7.5 (03:40) 3.5 3.5 0 0 0
17-11-2019 15.2 (20:40) 10.2 (00:00) 12.7 12.5 (23:59) 6.94 (14:10) 7.4 0 0 7.4 0
16-11-2019 14.3 (14:20) 6.4 (00:00) 10.4 8.33 (15:50) 4.72 (15:10) 0 0 0 0 0
15-11-2019 13.3 (14:10) 10.1 (00:00) 11.7 12.78 (15:50) 6.67 (14:00) 0.1 0.1 0 0 0
14-11-2019 16.2 (10:30) 11.5 (00:00) 13.9 17.22 (12:40) 8.33 (12:30) 3.7 0 0 3.7 0
13-11-2019 18.4 (16:00) 13.3 (00:00) 15.8 11.39 (14:50) 6.39 (13:00) 1.1 0 0.9 0.2 0
12-11-2019 18.5 (14:00) 11.7 (00:00) 15.1 9.17 (14:00) 5 (15:50) 0 0 0 0 0
11-11-2019 16.2 (20:40) 12.4 (08:20) 14.3 11.67 (01:10) 6.94 (01:10) 1.6 0.5 1 0 0.1

Gráficas

Temp. máximas Temp. mínimas Temp. medias Precipitaciones Rachas de viento máximas Velocidades máximas media en intervalos de 10 minutos

Datos horarios

Fecha y hora oficial Temperatura (ºC) Velocidad del viento (km/h) Dirección del viento Racha (km/h) Dirección de racha Precipitación (mm) Presión (hPa) Tendencia (hPa) Humedad (%)
2019-12-10 23:00:00 13.2 10 Oeste 15 Oeste 0 1004.5 -0.1 77
2019-12-10 22:00:00 13 7 Oeste 17 Oeste 0 1004.3 -0.1 75
2019-12-10 21:00:00 12.4 10 Oeste 15 Oeste 0 1004.7 0.8 87
2019-12-10 20:00:00 12.9 8 Oeste 14 Oeste 0 1004.6 0.8 87
2019-12-10 19:00:00 12.5 9 Oeste 15 Oeste 0 1004.4 0.4 85
2019-12-10 18:00:00 14.1 4 Oeste 12 Oeste 0 1003.9 -0.4 75
2019-12-10 17:00:00 15.9 6 Oeste 13 Sudoeste 0 1003.8 -1.2 69
2019-12-10 16:00:00 16.9 9 Oeste 15 Noroeste 0 1004 -1.8 67
2019-12-10 15:00:00 17.4 9 Oeste 16 Oeste 0 1004.3 -2.2 67
2019-12-10 14:00:00 17.2 5 Sudoeste 15 Sudoeste 0 1005 -1.3 68
2019-12-10 13:00:00 15.4 6 Sur 14 Sudoeste 0 1005.8 0.1 71
2019-12-10 12:00:00 14.5 7 Sudoeste 15 Sudoeste 0 1006.5 1.3 80
2019-12-10 11:00:00 13.5 6 Sur 13 Sur 0 1006.3 1.2 85
2019-12-10 10:00:00 11.2 3 Sur 9 Sudeste 0 1005.7 0.7 91
2019-12-10 09:00:00 9.7 3 Sur 5 Sur 0 1005.2 0.3 92
2019-12-10 08:00:00 9.5 0 Calma 4 Sur 0 1005.1 0.1 90
2019-12-10 07:00:00 9.9 0 Calma 5 Norte 0 1005 -0.7 88
2019-12-10 06:00:00 10.3 4 Oeste 11 Norte 0 1004.9 -0.7 89
2019-12-10 05:00:00 11.3 5 Norte 15 Norte 0 1005 -1.1 87
2019-12-10 04:00:00 11.7 6 Noroeste 17 Noroeste 0 1005.7 -0.7 87
2019-12-10 03:00:00 12.1 5 Noroeste 15 Norte 0 1005.6 -1 85
2019-12-10 02:00:00 12.3 7 Noroeste 14 Oeste 0 1006.1 -0.5 84
2019-12-10 01:00:00 12.9 5 Noroeste 14 Noroeste 0 1006.4 -0.3 82
2019-12-10 00:00:00 13.2 5 Noroeste 17 Oeste 0 1006.6 0 81
2019-12-09 23:00:00 12.7 9 Oeste 18 Oeste 0 1006.6 0 86
2019-12-09 22:00:00 13.5 8 Noroeste 15 Noroeste 0 1006.7 0.2 79
2019-12-09 21:00:00 13.9 5 Noroeste 12 Noroeste 0 1006.6 0.5 78
2019-12-09 20:00:00 14.8 4 Norte 15 Norte 0 1006.6 0.4 78
2019-12-09 19:00:00 15.5 6 Noroeste 17 Noroeste 0 1006.5 0.4 83
2019-12-09 18:00:00 15.4 8 Noroeste 21 Oeste 0 1006.1 -0.3 82
2019-12-09 17:00:00 16.8 9 Oeste 27 Noroeste 0 1006.2 -0.7 79
2019-12-09 16:00:00 17.3 10 Oeste 24 Oeste 0 1006.1 -1.4 77
2019-12-09 15:00:00 17.3 6 Oeste 16 Oeste 0 1006.4 -1.8 76
2019-12-09 14:00:00 17.9 5 Noroeste 15 Oeste 0 1006.9 -1.5 69
2019-12-09 13:00:00 17.9 5 Norte 18 Norte 0 1007.5 -0.3 73
2019-12-09 12:00:00 17.3 6 Norte 19 Norte 0 1008.2 1 77
2019-12-09 11:00:00 16.1 4 Norte 16 Noroeste 0 1008.4 1.8 80
2019-12-09 10:00:00 15 6 Norte 13 Norte 0 1007.8 1.5 79
2019-12-09 09:00:00 14 5 Noroeste 10 Oeste 0 1007.2 1.2 81
2019-12-09 08:00:00 13.7 6 Noroeste 12 Oeste 0 1006.6 0.8 83
2019-12-09 07:00:00 13.3 7 Noroeste 15 Oeste 0 1006.3 0.3 92
2019-12-09 06:00:00 13.7 8 Oeste 13 Noroeste 0 1006 0.1 92
2019-12-09 05:00:00 13.7 8 Oeste 12 Oeste 0 1005.8 -0.5 91
2019-12-09 04:00:00 13.9 8 Oeste 15 Oeste 0 1006 -0.5 89
2019-12-09 03:00:00 13.6 8 Oeste 12 Oeste 0 1005.9 -0.7 88
2019-12-09 02:00:00 13.6 8 Oeste 13 Oeste 0 1006.3 0 86
2019-12-09 01:00:00 14.1 8 Oeste 15 Oeste 0 1006.5 0.4 82
2019-12-09 00:00:00 13.7 8 Oeste 14 Noroeste 0 1006.6 0.7 81
2019-12-08 23:00:00 12.9 7 Oeste 16 Oeste 0 1006.3 0.6 85
2019-12-08 22:00:00 12.9 10 Oeste 17 Oeste 0 1006.1 1.1 87
2019-12-08 21:00:00 12.9 10 Oeste 15 Oeste 0 1005.9 1.2 87
2019-12-08 20:00:00 12.9 10 Oeste 22 Oeste 0 1005.7 1.6 87
2019-12-08 19:00:00 12.8 15 Oeste 24 Oeste 0 1005 0.8 85
2019-12-08 18:00:00 13.8 13 Oeste 23 Oeste 0 1004.7 0.6 80
2019-12-08 17:00:00 14.9 14 Oeste 23 Oeste 0 1004.1 -0.4 76
2019-12-08 16:00:00 17.3 13 Oeste 25 Oeste 0 1004.2 -1 68
2019-12-08 15:00:00 18 14 Oeste 24 Oeste 0 1004.1 -1.6 63
2019-12-08 14:00:00 18.2 13 Oeste 22 Sudoeste 0 1004.5 -1.2 65
2019-12-08 13:00:00 17.5 9 Oeste 18 Sudoeste 0 1005.2 0.2 65
2019-12-08 12:00:00 16.1 8 Sudoeste 16 Sudoeste 0 1005.7 1.2 73
2019-12-08 11:00:00 14.7 10 Oeste 26 Oeste 0 1005.7 1.7 77
2019-12-08 10:00:00 13.7 5 Sudoeste 10 Sudoeste 0 1005 1.6 74
2019-12-08 09:00:00 13.3 3 Sudoeste 5 Oeste 0 1004.5 1.3 69
2019-12-08 08:00:00 13.2 3 Oeste 7 Oeste 0 1004 0.7 70
2019-12-08 07:00:00 13.3 2 Oeste 4 Oeste 0 1003.4 0 73
2019-12-08 06:00:00 13 0 Calma 4 Norte 0 1003.2 -0.4 78
2019-12-08 05:00:00 13.1 2 Norte 5 Norte 0 1003.3 -0.2 75
2019-12-08 04:00:00 13 2 Norte 5 Norte 0 1003.4 -0.2 83
2019-12-08 03:00:00 13.6 0 Calma 11 Noroeste 0 1003.6 -0.1 79
2019-12-08 02:00:00 13.6 3 Noroeste 6 Noroeste 0 1003.5 -0.1 81
2019-12-08 01:00:00 13.1 0 Calma 5 Nordeste 0 1003.6 0.3 85
2019-12-08 00:00:00 13.7 0 Calma 3 Este 0 1003.7 0.9 80
2019-12-07 23:00:00 14.2 0 Calma 3 Nordeste 0 1003.6 1.2 78
2019-12-07 22:00:00 14.6 0 Calma 3 Este 0 1003.3 1.3 77
2019-12-07 21:00:00 14.8 2 Este 4 Este 0 1002.8 1.4 75
2019-12-07 20:00:00 15.4 0 Calma 11 Oeste 0 1002.4 1.6 74
2019-12-07 19:00:00 15.6 0 Calma 12 Oeste 0 1002 1.6 74
2019-12-07 18:00:00 17.4 4 Oeste 9 Este 0 1001.4 1.2 69
2019-12-07 17:00:00 18.8 4 Este 14 Sudeste 0 1000.8 0.3 59
2019-12-07 16:00:00 19.8 5 Este 18 Sudeste 0 1000.4 -0.5 57
2019-12-07 15:00:00 20.1 8 Sudeste 22 Este 0 1000.2 -1.5 56
2019-12-07 14:00:00 19.3 9 Este 21 Este 0 1000.5 -1 59
2019-12-07 13:00:00 18.5 8 Este 22 Este 0 1000.9 0.5 63
2019-12-07 12:00:00 17 7 Nordeste 15 Este 0 1001.7 1.8 66
2019-12-07 11:00:00 15.8 7 Nordeste 18 Nordeste 0 1001.5 1.9 72
2019-12-07 10:00:00 14.3 9 Este 21 Este 0 1000.4 1.3 78
2019-12-07 09:00:00 13.2 8 Este 17 Nordeste 0 999.9 1.1 83
2019-12-07 08:00:00 13.1 8 Este 17 Nordeste 0 999.6 1 83
2019-12-07 07:00:00 13.1 8 Nordeste 18 Este 0 999.1 0.4 83
2019-12-07 06:00:00 13 9 Nordeste 19 Nordeste 0 998.8 0.3 84
2019-12-07 05:00:00 13.3 8 Este 19 Nordeste 0 998.6 0 84
2019-12-07 04:00:00 13.3 9 Este 21 Este 0 998.7 0.5 84
2019-12-07 03:00:00 13.7 10 Este 27 Este 0 998.5 0.1 81
2019-12-07 02:00:00 13.9 11 Este 38 Este 0 998.6 0.4 80
2019-12-07 01:00:00 14.1 13 Este 37 Este 0 998.2 0.2 79
2019-12-07 00:00:00 14.1 13 Este 36 Este 0 998.4 0.4 78
2019-12-06 23:00:00 14.1 14 Este 32 Este 0 998.2 0.6 78
2019-12-06 22:00:00 14 11 Este 27 Este 0 998 0.8 78
2019-12-06 21:00:00 14.3 12 Este 30 Este 0 998 1.3 75
2019-12-06 20:00:00 14.2 13 Este 36 Este 0 997.6 1.2 76
2019-12-06 19:00:00 14.6 13 Este 30 Nordeste 0 997.2 1.3 76
2019-12-06 18:00:00 15.6 10 Este 29 Este 0 996.7 0.9 71
2019-12-06 17:00:00 17 10 Este 29 Este 0 996.4 0.7 64
2019-12-06 16:00:00 16.9 14 Este 31 Este 0 995.9 -0.4 66
2019-12-06 15:00:00 17.4 14 Este 41 Este 0 995.8 -1.6 65
2019-12-06 14:00:00 18 19 Este 44 Este 0 995.7 -1.2 62
2019-12-06 13:00:00 17.9 17 Este 37 Este 0 996.3 -0.1 65
2019-12-06 12:00:00 15.8 14 Este 39 Este 0 997.4 1.9 72
2019-12-06 11:00:00 15.8 17 Este 41 Este 0 996.9 2.2 72
2019-12-06 10:00:00 14.8 16 Este 36 Este 0 996.4 2.2 75
2019-12-06 09:00:00 14.3 17 Este 41 Este 0 995.5 1.5 75
2019-12-06 08:00:00 14.2 14 Este 35 Este 0 994.7 1 73
2019-12-06 07:00:00 14 13 Este 29 Este 0 994.2 0.9 75
2019-12-06 06:00:00 13.9 11 Este 40 Este 0 994 0.7 77
2019-12-06 05:00:00 14 14 Este 35 Este 0 993.7 0.1 75
2019-12-06 04:00:00 13.9 13 Este 35 Este 0 993.3 -0.2 75
2019-12-06 03:00:00 13.6 9 Este 25 Este 0 993.3 -0.3 78
2019-12-06 02:00:00 13.7 10 Este 33 Este 0 993.6 0.1 77
2019-12-06 01:00:00 13.6 15 Este 39 Este 0 993.5 0.3 80
2019-12-06 00:00:00 13.8 15 Este 35 Este 0 993.6 0.4 78
2019-12-05 23:00:00 13.6 12 Este 33 Este 0 993.5 0.6 80
2019-12-05 22:00:00 13.9 12 Este 32 Este 0 993.2 1.1 75
2019-12-05 21:00:00 13.4 8 Este 19 Este 0 993.2 1.5 78
2019-12-05 20:00:00 13.4 9 Nordeste 20 Este 0 992.9 1.6 74
2019-12-05 19:00:00 13.6 8 Este 19 Este 0 992.1 1.1 66
2019-12-05 18:00:00 14.6 9 Este 23 Sudeste 0 991.7 0.8 68
2019-12-05 17:00:00 15.5 10 Este 27 Este 0 991.3 0.2 66
2019-12-05 16:00:00 15.9 9 Este 27 Sudeste 0 991 -0.4 65
2019-12-05 15:00:00 15.4 8 Este 22 Este 0 990.9 -1.3 64
2019-12-05 14:00:00 17 8 Este 19 Este 0 991.1 -1.1 58
2019-12-05 13:00:00 15.6 5 Este 13 Este 0 991.4 0.6 56
2019-12-05 12:00:00 14 6 Nordeste 13 Nordeste 0 992.2 1.3 53
2019-12-05 11:00:00 13 5 Nordeste 16 Norte 0 992.2 1.8 70
2019-12-05 10:00:00 12.2 8 Sudeste 12 Sudeste 0 990.8 1 58
2019-12-05 09:00:00 9.7 5 Nordeste 10 Nordeste 0 990.9 1.5 77
2019-12-05 08:00:00 10 4 Nordeste 7 Nordeste 0.1 990.4 0.9 73
2019-12-05 07:00:00 10.3 2 Nordeste 10 Norte 0 989.8 0.2 66
2019-12-05 06:00:00 11.2 5 Norte 9 Norte 0 989.4 0.1 62
2019-12-05 05:00:00 11.5 0 Calma 5 Nordeste 0 989.5 0.2 66
2019-12-05 04:00:00 11.5 2 Nordeste 6 Nordeste 0 989.6 0.1 74
2019-12-05 03:00:00 11.6 0 Calma 6 Nordeste 0 989.3 -0.2 74
2019-12-05 02:00:00 11.4 0 Calma 5 Nordeste 0 989.3 0 75
2019-12-05 01:00:00 11.2 3 Nordeste 6 Nordeste 0 989.5 0.3 80
2019-12-05 00:00:00 12.1 0 Calma 5 Norte 0 989.5 0.4 76
2019-12-04 23:00:00 12 0 Calma 8 Noroeste 0 989.3 0.5 76
2019-12-04 22:00:00 12.2 5 Oeste 9 Oeste 0.1 989.2 1 71
2019-12-04 21:00:00 12.3 5 Oeste 7 Oeste 0 989.1 0.9 71
2019-12-04 20:00:00 12.6 3 Noroeste 6 Noroeste 0 988.8 1.1 65
2019-12-04 19:00:00 12.3 0 Calma 8 Oeste 0 988.2 0.5 68
2019-12-04 18:00:00 12.7 5 Oeste 17 Oeste 0 988.2 0.5 70
2019-12-04 17:00:00 13.2 11 Oeste 22 Oeste 0 987.7 -0.4 65
2019-12-04 16:00:00 13.4 16 Oeste 25 Oeste 0 987.7 -1 63
2019-12-04 15:00:00 13.9 14 Oeste 31 Oeste 0 987.7 -1.7 59
2019-12-04 14:00:00 14.8 13 Oeste 30 Oeste 0 988.1 -1.6 59
2019-12-04 13:00:00 14.8 14 Oeste 27 Oeste 0 988.7 -0.4 57
2019-12-04 12:00:00 14.9 8 Oeste 15 Noroeste 0 989.4 0.8 60
2019-12-04 11:00:00 13.2 8 Oeste 30 Noroeste 0 989.7 1.2 68
2019-12-04 10:00:00 12.5 11 Noroeste 28 Oeste 0 989.1 0.8 80
2019-12-04 09:00:00 12 14 Noroeste 30 Oeste 0 988.6 0.5 87
2019-12-04 08:00:00 12.2 12 Oeste 23 Oeste 0 988.5 -0.1 90
2019-12-04 07:00:00 12.6 12 Oeste 21 Oeste 0 988.3 -0.8 88
2019-12-04 06:00:00 12.8 7 Oeste 15 Oeste 0 988.1 -1.3 91
2019-12-04 05:00:00 13 8 Oeste 14 Sudoeste 0 988.6 -1.4 90
2019-12-04 04:00:00 13 8 Oeste 17 Oeste 0 989.1 -1.2 89
2019-12-04 03:00:00 13.1 7 Oeste 17 Oeste 0 989.4 -1 87
2019-12-04 02:00:00 13.3 8 Oeste 18 Oeste 0 990 -0.1 85
2019-12-04 01:00:00 13.4 12 Oeste 22 Oeste 0 990.3 0.5 84
2019-12-04 00:00:00 13.5 12 Oeste 19 Oeste 0 990.4 0.9 83
2019-12-03 23:00:00 13.3 11 Oeste 22 Oeste 0 990.1 0.8 78
2019-12-03 22:00:00 13.7 9 Noroeste 17 Noroeste 0 989.8 1.1 71
2019-12-03 21:00:00 13.8 7 Noroeste 12 Noroeste 0 989.5 1 71
2019-12-03 20:00:00 14.5 4 Noroeste 10 Oeste 0 989.3 1.3 72
2019-12-03 19:00:00 15 7 Noroeste 15 Oeste 0 988.7 1.2 70
2019-12-03 18:00:00 15.3 8 Noroeste 13 Oeste 0 988.5 0.9 70
2019-12-03 17:00:00 16.8 7 Noroeste 17 Oeste 0 988 0.2 67
2019-12-03 16:00:00 18.2 0 Calma 10 Oeste 0 987.5 -0.7 56
2019-12-03 15:00:00 16.7 3 Norte 10 Este 0 987.6 -0.8 66
2019-12-03 14:00:00 15.4 3 Nordeste 10 Nordeste 0 987.8 -1.2 73
2019-12-03 13:00:00 14.8 4 Nordeste 17 Norte 0 988.2 -0.5 75
2019-12-03 12:00:00 14.4 8 Norte 21 Norte 0 988.4 -0.1 73
2019-12-03 11:00:00 13.5 9 Norte 17 Norte 0 989 0.6 74
2019-12-03 10:00:00 13.1 6 Norte 12 Norte 0.1 988.7 0.8 76
2019-12-03 09:00:00 13.1 6 Norte 14 Norte 0 988.5 0.4 75
2019-12-03 08:00:00 12.2 2 Nordeste 12 Norte 0 988.4 0.3 80
2019-12-03 07:00:00 12.1 0 Calma 10 Nordeste 0 987.9 -0.7 84
2019-12-03 06:00:00 12.2 3 Nordeste 14 Este 0 988.1 -0.7 87
2019-12-03 05:00:00 12.3 5 Nordeste 22 Nordeste 0 988.1 -0.5 88
2019-12-03 04:00:00 12.3 9 Nordeste 22 Nordeste 0 988.6 -0.4 91
2019-12-03 03:00:00 12 10 Nordeste 22 Nordeste 0.1 988.8 -0.4 91
2019-12-03 02:00:00 12 10 Nordeste 22 Nordeste 0 988.6 -0.7 91
2019-12-03 01:00:00 11.9 9 Este 22 Este 0 989 -0.2 91
2019-12-03 00:00:00 12 8 Nordeste 23 Nordeste 0 989.2 -0.2 92
2019-12-02 23:00:00 11.9 9 Nordeste 19 Nordeste 0.1 989.3 0.9 93
2019-12-02 22:00:00 11.6 4 Este 22 Este 3 989.2 1.6 93
2019-12-02 21:00:00 11.5 9 Este 37 Este 2.4 989.4 2.3 92
2019-12-02 20:00:00 11.8 8 Este 23 Este 0 988.4 1.8 87
2019-12-02 19:00:00 12 10 Este 26 Este 0 987.6 1 88
2019-12-02 18:00:00 11.7 8 Este 22 Este 0 987.1 0.8 87
2019-12-02 17:00:00 11.6 8 Este 19 Este 0.6 986.6 0.1 89
2019-12-02 16:00:00 11.9 11 Este 25 Este 0.8 986.6 -0.1 89
2019-12-02 15:00:00 13.2 11 Este 34 Este 0.1 986.3 -1 83
2019-12-02 14:00:00 14.9 10 Sudeste 24 Sudeste 0 986.5 -0.7 79
2019-12-02 13:00:00 12.1 3 Este 11 Este 2.5 986.7 0.1 91
2019-12-02 12:00:00 12 5 Este 20 Este 0 987.3 1.1 82
2019-12-02 11:00:00 12.2 4 Este 12 Sudeste 0 987.2 1.2 89
2019-12-02 10:00:00 11.6 0 Calma 9 Este 0 986.6 0.7 89
2019-12-02 09:00:00 11.8 4 Este 9 Este 0.2 986.2 0.1 89
2019-12-02 08:00:00 11.8 3 Este 6 Este 0.5 986 -0.3 88
2019-12-02 07:00:00 12.2 4 Este 6 Este 0 985.9 -0.9 86
2019-12-02 06:00:00 12.1 0 Calma 4 Noroeste 0 986.1 -0.8 86
2019-12-02 05:00:00 12.1 2 Noroeste 6 Norte 0 986.3 -1.3 85
2019-12-02 04:00:00 12.2 0 Calma 13 Oeste 0.1 986.8 -1.6 85
2019-12-02 03:00:00 12.7 6 Oeste 11 Oeste 0 986.9 -1.7 86
2019-12-02 02:00:00 13 5 Oeste 10 Oeste 0 987.6 -1.3 85
2019-12-02 01:00:00 13 5 Oeste 22 Noroeste 0 988.4 -0.9 83
2019-12-02 00:00:00 12.9 11 Oeste 23 Oeste 0 988.6 -1.3 84
2019-12-01 23:00:00 13.4 11 Oeste 31 Sudoeste 1.2 988.9 -1.1 87
2019-12-01 22:00:00 13.8 15 Oeste 29 Sudoeste 0 989.3 -0.7 83
2019-12-01 21:00:00 13.6 14 Oeste 27 Sudoeste 0 989.9 -0.2 84
2019-12-01 20:00:00 13.5 13 Oeste 28 Sudoeste 0 990 -0.4 86
2019-12-01 19:00:00 13.7 15 Oeste 32 Oeste 0 990 -0.6 85
2019-12-01 18:00:00 13.6 15 Sudoeste 32 Sudoeste 0.5 990.1 -1.2 92
2019-12-01 17:00:00 13.5 19 Oeste 39 Sudoeste 0.7 990.4 -1.8 88
2019-12-01 16:00:00 14.2 17 Oeste 41 Sudoeste 3.6 990.6 -2.6 88
2019-12-01 15:00:00 16 13 Oeste 31 Oeste 0.1 991.3 -2.9 76
2019-12-01 14:00:00 17.8 14 Oeste 29 Oeste 0 992.2 -2.3 68
2019-12-01 13:00:00 16.6 12 Oeste 28 Oeste 0.1 993.2 -0.9 70
2019-12-01 12:00:00 15.5 11 Oeste 23 Oeste 0 994.2 -0.1 68
2019-12-01 11:00:00 14.6 12 Oeste 24 Oeste 0 994.5 0.4 74
2019-12-01 10:00:00 14.1 15 Noroeste 27 Oeste 0 994.1 0 80
2019-12-01 09:00:00 14.1 9 Oeste 17 Oeste 0 994.3 -0.1 94
2019-12-01 08:00:00 13.8 8 Oeste 18 Oeste 0 994.1 -0.9 94
2019-12-01 07:00:00 13.4 9 Oeste 17 Oeste 0.1 994.1 -1.7 91
2019-12-01 06:00:00 13.4 8 Oeste 18 Oeste 1.9 994.4 -1.5 92
2019-12-01 05:00:00 14.1 7 Noroeste 22 Oeste 0.9 995 -1.5 93
2019-12-01 04:00:00 14.5 9 Noroeste 28 Oeste 1.6 995.8 -1.4 93
2019-12-01 03:00:00 15.8 20 Sudoeste 35 Sudoeste 0 995.9 -1.8 89
2019-12-01 02:00:00 15.5 14 Sudoeste 24 Oeste 0 996.5 -1.7 89
2019-12-01 01:00:00 15.3 13 Oeste 23 Sudoeste 0 997.2 -1.5 89
2019-12-01 00:00:00 14.8 12 Oeste 21 Oeste 0 997.7 -1.3 87
2019-11-30 23:00:00 14.8 9 Oeste 17 Oeste 0 998.2 -0.8 87
2019-11-30 22:00:00 14.4 9 Oeste 17 Oeste 0 998.7 -0.2 89
2019-11-30 21:00:00 14.1 9 Oeste 19 Oeste 0 999 0.5 90
2019-11-30 20:00:00 14.2 9 Oeste 18 Oeste 0 999 0.3 89
2019-11-30 19:00:00 14.2 10 Oeste 17 Oeste 0 998.9 0.2 83
2019-11-30 18:00:00 15.4 7 Oeste 20 Oeste 0 998.5 -0.5 73
2019-11-30 17:00:00 17.8 12 Oeste 23 Oeste 0 998.7 -0.9 68
2019-11-30 16:00:00 19.8 11 Oeste 23 Oeste 0 998.7 -1.8 61
2019-11-30 15:00:00 20 12 Oeste 19 Oeste 0 999 -1.9 59
2019-11-30 14:00:00 20.3 9 Oeste 15 Oeste 0 999.6 -1.3 58
2019-11-30 13:00:00 19.2 7 Noroeste 16 Noroeste 0 1000.5 0.2 57
2019-11-30 12:00:00 17.9 3 Noroeste 9 Noroeste 0 1000.9 0.9 64
2019-11-30 11:00:00 15.6 4 Norte 15 Norte 0 1000.9 1.3 70
2019-11-30 10:00:00 13.6 9 Norte 16 Norte 0 1000.3 1.2 75
2019-11-30 09:00:00 13.4 8 Norte 14 Norte 0 1000 1 77
2019-11-30 08:00:00 13 3 Norte 16 Norte 0 999.6 0.4 80
2019-11-30 07:00:00 13.2 8 Norte 15 Norte 0 999.1 -0.3 79
2019-11-30 06:00:00 13.1 3 Norte 8 Norte 0 999 -0.6 80
2019-11-30 05:00:00 12.9 0 Calma 10 Norte 0 999.2 -0.5 79
2019-11-30 04:00:00 13.4 4 Norte 17 Norte 0 999.4 -0.3 77
2019-11-30 03:00:00 13.9 8 Norte 16 Norte 0 999.6 0.1 76
2019-11-30 02:00:00 14.1 6 Norte 12 Norte 0 999.7 0.1 76
2019-11-30 01:00:00 14.3 0 Calma 13 Norte 0 999.7 0 76
2019-11-30 00:00:00 15.6 4 Norte 14 Norte 0 999.5 -0.2 71
2019-11-29 23:00:00 16.3 6 Norte 23 Norte 0 999.6 -0.2 68
2019-11-29 22:00:00 16.1 10 Norte 22 Norte 0 999.7 0 68
2019-11-29 21:00:00 16 11 Norte 22 Norte 0 999.7 0.2 68
2019-11-29 20:00:00 16.4 7 Norte 18 Norte 0 999.8 0.5 68
2019-11-29 19:00:00 17.3 7 Noroeste 15 Norte 0 999.7 0.5 67
2019-11-29 18:00:00 17.7 9 Oeste 17 Noroeste 0 999.5 0.2 74
2019-11-29 17:00:00 20.5 6 Noroeste 17 Noroeste 0 999.3 -0.4 55
2019-11-29 16:00:00 21.2 7 Noroeste 20 Norte 0 999.2 -1.4 52
2019-11-29 15:00:00 21.1 6 Norte 18 Norte 0 999.3 -1.6 52
2019-11-29 14:00:00 20.3 7 Noroeste 19 Norte 0 999.7 -1.2 56
2019-11-29 13:00:00 19.3 6 Norte 21 Norte 0 1000.6 0.1 56
2019-11-29 12:00:00 18 9 Norte 22 Norte 0 1000.9 1.2 63
2019-11-29 11:00:00 16.2 6 Noroeste 17 Norte 0 1000.9 1.6 70
2019-11-29 10:00:00 15 6 Noroeste 23 Norte 0 1000.5 1.4 75
2019-11-29 09:00:00 13.9 11 Norte 22 Norte 0 999.7 0.8 80
2019-11-29 08:00:00 14 9 Norte 24 Norte 0 999.3 0.6 79
2019-11-29 07:00:00 13.5 10 Norte 23 Norte 0 999.1 0.2 78
2019-11-29 06:00:00 13.6 8 Noroeste 22 Norte 0 998.9 0.3 77
2019-11-29 05:00:00 13.5 8 Noroeste 19 Norte 0 998.7 0.1 75
2019-11-29 04:00:00 13.8 7 Noroeste 16 Noroeste 0 998.9 0 76
2019-11-29 03:00:00 14 6 Noroeste 14 Norte 0 998.6 -0.3 76
2019-11-29 02:00:00 14.1 6 Noroeste 15 Norte 0 998.6 -0.3 75
2019-11-29 01:00:00 14.5 8 Noroeste 17 Noroeste 0 998.9 0.2 76
2019-11-29 00:00:00 14.5 8 Noroeste 13 Noroeste 0 998.9 0.5 74
2019-11-28 23:00:00 14.7 4 Noroeste 11 Norte 0 998.9 0.7 73
2019-11-28 22:00:00 14.7 5 Noroeste 12 Noroeste 0 998.7 0.9 74
2019-11-28 21:00:00 14.8 7 Noroeste 17 Oeste 0 998.4 0.9 76
2019-11-28 20:00:00 14.3 9 Oeste 16 Oeste 0 998.2 0.8 85
2019-11-28 19:00:00 14.8 10 Oeste 15 Oeste 0 997.8 0.6 85
2019-11-28 18:00:00 16.1 9 Oeste 18 Sudoeste 0 997.5 0 79
2019-11-28 17:00:00 18.1 9 Oeste 20 Oeste 0 997.4 -0.4 71
2019-11-28 16:00:00 19.3 11 Oeste 19 Sudoeste 0 997.2 -1.4 64
2019-11-28 15:00:00 19.3 9 Oeste 21 Oeste 0 997.5 -1.6 63
2019-11-28 14:00:00 19.6 7 Oeste 16 Oeste 0 997.8 -1.2 65
2019-11-28 13:00:00 18.9 7 Sudoeste 12 Sudoeste 0 998.6 -0.1 70
2019-11-28 12:00:00 17.6 3 Oeste 9 Sudoeste 0 999.1 1.1 75
2019-11-28 11:00:00 16 0 Calma 9 Norte 0 999 1.6 85
2019-11-28 10:00:00 15 4 Norte 9 Norte 0 998.7 1.4 88
2019-11-28 09:00:00 14.1 4 Norte 7 Norte 0.1 998 1.2 90
2019-11-28 08:00:00 13 0 Calma 6 Noroeste 0 997.4 0.6 94
2019-11-28 07:00:00 14.6 5 Noroeste 9 Noroeste 0 997.3 0.4 95
2019-11-28 06:00:00 13.9 6 Oeste 8 Oeste 0.1 996.8 0.2 94
2019-11-28 05:00:00 13.3 0 Calma 10 Oeste 0 996.8 -0.2 93
2019-11-28 04:00:00 14.6 7 Oeste 10 Oeste 0 996.9 -0.6 94
2019-11-28 03:00:00 14.5 6 Oeste 12 Oeste 0 996.6 -0.7 93
2019-11-28 02:00:00 14.2 9 Oeste 14 Oeste 0.1 997 -0.5 92
2019-11-28 01:00:00 14.1 8 Oeste 13 Oeste 0 997.5 0.5 92
2019-11-28 00:00:00 14.4 8 Oeste 14 Oeste 0 997.3 0.9 93
2019-11-27 23:00:00 14.7 9 Oeste 14 Oeste 0 997.5 1.4 94
2019-11-27 22:00:00 15.2 7 Oeste 14 Sudoeste 0 997 1.5 94
2019-11-27 21:00:00 15.2 8 Oeste 15 Sudoeste 0 996.4 1.1 94
2019-11-27 20:00:00 15.5 8 Oeste 14 Sudoeste 0 996.1 0.9 94
2019-11-27 19:00:00 15.6 8 Sudoeste 14 Sudoeste 0 995.5 0.8 93
2019-11-27 18:00:00 15.5 8 Oeste 19 Sudoeste 0 995.3 0.4 93
2019-11-27 17:00:00 16 13 Oeste 21 Sudoeste 0 995.2 0 93
2019-11-27 16:00:00 16.6 12 Sudoeste 17 Sudoeste 0 994.7 -1.1 91
2019-11-27 15:00:00 16.4 12 Sudoeste 21 Sudoeste 0 994.9 -1.5 91
2019-11-27 14:00:00 15.1 14 Sudoeste 23 Sudoeste 0 995.2 -1.4 91
2019-11-27 06:00:00 15.1 12 Sudoeste 24 Sudoeste 0.4 994 -0.5 94
2019-11-27 05:00:00 15.3 9 Oeste 21 Oeste 0.2 994.2 -0.6 94
2019-11-27 04:00:00 15.2 9 Oeste 26 Oeste 1.2 994.4 -0.9 94
2019-11-27 03:00:00 15.8 18 Oeste 36 Sudoeste 0.5 994.5 -0.6 93
2019-11-27 02:00:00 15.8 17 Sudoeste 37 Sudoeste 0.4 994.8 -0.6 90
2019-11-27 01:00:00 15.8 18 Sudoeste 34 Sudoeste 0 995.3 0.1 90
2019-11-27 00:00:00 15.9 19 Sudoeste 36 Sudoeste 0 995.1 -0.2 92
2019-11-26 23:00:00 16 17 Sudoeste 28 Sudoeste 0 995.4 0.2 92
2019-11-26 22:00:00 15.9 18 Sudoeste 29 Sudoeste 0 995.2 0.4 91
2019-11-26 21:00:00 15.8 14 Sudoeste 28 Oeste 0 995.3 0.7 92
2019-11-26 20:00:00 16.2 14 Sudoeste 31 Sudoeste 0 995.2 0.7 92
2019-11-26 19:00:00 17 17 Oeste 30 Oeste 0 994.8 0.2 92
2019-11-26 18:00:00 17.5 14 Sudoeste 23 Sudoeste 0 994.6 0.2 91
2019-11-26 17:00:00 17.7 13 Sudoeste 25 Sudoeste 0 994.5 -0.6 89
2019-11-26 16:00:00 18.5 12 Sudoeste 24 Oeste 0 994.6 -1 85
2019-11-26 15:00:00 18.7 10 Sudoeste 21 Oeste 0 994.4 -2.1 83
2019-11-26 14:00:00 18 10 Oeste 21 Sudoeste 0 995.1 -1.6 89
2019-11-26 13:00:00 17.9 12 Oeste 21 Oeste 0 995.6 -0.9 90
2019-11-26 12:00:00 17.2 9 Oeste 17 Oeste 0.3 996.5 0.1 93
2019-11-26 11:00:00 17.2 6 Sudoeste 12 Sudoeste 0 996.7 0.7 93
2019-11-26 10:00:00 17 0 Calma 5 Sudeste 0.1 996.5 0.7 93
2019-11-26 09:00:00 15.8 0 Calma 6 Oeste 0.9 996.4 0.6 94
2019-11-26 08:00:00 15.9 4 Oeste 8 Oeste 0.3 996 0 94
2019-11-26 07:00:00 16.2 0 Calma 6 Oeste 0.1 995.8 -0.8 94
2019-11-26 06:00:00 16.2 2 Oeste 12 Oeste 0 995.8 -1 94
2019-11-26 05:00:00 16.1 5 Oeste 13 Oeste 0 996 -1 94
2019-11-26 04:00:00 16.2 8 Oeste 16 Oeste 0.4 996.6 -1 94
2019-11-26 03:00:00 15.7 7 Oeste 17 Oeste 0 996.8 -1 94
2019-11-26 02:00:00 16.4 12 Oeste 23 Sudoeste 0 997 -0.7 94
2019-11-26 01:00:00 16.1 10 Oeste 26 Oeste 0 997.6 -0.1 93
2019-11-26 00:00:00 16.3 14 Sudoeste 28 Sudoeste 0 997.8 0 92
2019-11-25 23:00:00 16.2 15 Oeste 28 Oeste 0 997.7 0.1 91
2019-11-25 22:00:00 15.7 15 Sudoeste 28 Sudoeste 0 997.7 0.2 90
2019-11-25 21:00:00 15.6 17 Sudoeste 28 Sudoeste 0 997.8 0.4 90
2019-11-25 20:00:00 15.9 15 Sudoeste 28 Sudoeste 0 997.6 0.2 87
2019-11-25 19:00:00 16.6 13 Sudoeste 25 Sudoeste 0 997.5 0.3 86
2019-11-25 18:00:00 17 15 Oeste 25 Sudoeste 0 997.4 0 83
2019-11-25 17:00:00 17.7 14 Oeste 29 Sudoeste 0 997.4 -0.4 80
2019-11-25 16:00:00 18.7 17 Sudoeste 29 Sudoeste 0 997.2 -1.1 76
2019-11-25 15:00:00 18.9 16 Sudoeste 29 Oeste 0 997.4 -1.5 74
2019-11-25 14:00:00 17.7 16 Sudoeste 26 Sudoeste 0 997.8 -1.2 80
2019-11-25 13:00:00 17.7 14 Sudoeste 24 Sudoeste 0 998.3 -0.5 80
2019-11-25 12:00:00 18.1 13 Sudoeste 24 Sudoeste 0 998.9 0.4 76
2019-11-25 11:00:00 17 12 Sudoeste 21 Sudoeste 0 999 0.9 79
2019-11-25 10:00:00 15.8 11 Sudoeste 18 Sudoeste 0 998.8 1.2 82
2019-11-25 09:00:00 15.3 9 Sudoeste 14 Sudoeste 0 998.5 1.3 84
2019-11-25 08:00:00 15 10 Sudoeste 18 Sudoeste 0 998.1 0.7 84
2019-11-25 07:00:00 14.8 10 Sudoeste 19 Sudoeste 0 997.6 0 83
2019-11-25 06:00:00 14.7 11 Sudoeste 19 Sudoeste 0 997.2 -0.6 81
2019-11-25 05:00:00 13.5 8 Sudoeste 13 Oeste 0 997.4 -0.5 84
2019-11-25 04:00:00 13.2 6 Oeste 12 Oeste 0 997.6 -0.8 85
2019-11-25 03:00:00 13.1 5 Oeste 14 Oeste 0 997.8 -0.5 85
2019-11-25 02:00:00 13.1 7 Oeste 14 Oeste 0 997.9 -0.2 83
2019-11-25 01:00:00 13.2 6 Oeste 11 Oeste 0 998.4 0.1 81
2019-11-25 00:00:00 13.1 6 Oeste 14 Oeste 0 998.3 0.1 80
2019-11-24 23:00:00 13.4 8 Oeste 17 Oeste 0 998.1 -0.1 77
2019-11-24 22:00:00 13.2 10 Oeste 18 Oeste 0 998.3 0.4 76
2019-11-24 21:00:00 13 11 Oeste 16 Oeste 0 998.2 0.9 78
2019-11-24 20:00:00 12.8 9 Oeste 15 Oeste 0 998.2 1.2 82
2019-11-24 19:00:00 13 9 Oeste 14 Oeste 0 997.9 0.7 80
2019-11-24 18:00:00 14.3 8 Oeste 19 Oeste 0 997.3 0.3 72
2019-11-24 17:00:00 15.2 11 Oeste 26 Oeste 0 997 -0.1 59
2019-11-24 16:00:00 16.2 12 Oeste 27 Oeste 0 997.2 -0.7 58
2019-11-24 15:00:00 16.3 13 Oeste 27 Oeste 0 997 -1.4 58
2019-11-24 14:00:00 16.3 13 Oeste 26 Oeste 0 997.1 -1.3 60
2019-11-24 13:00:00 16.1 9 Oeste 21 Oeste 0 997.9 -0.3 64
2019-11-24 12:00:00 15.2 8 Oeste 15 Oeste 0 998.4 0.8 65
2019-11-24 11:00:00 13.1 4 Noroeste 16 Noroeste 0 998.4 1.3 75
2019-11-24 10:00:00 12.2 5 Noroeste 13 Oeste 0 998.2 2.3 82
2019-11-24 09:00:00 11.5 4 Noroeste 16 Oeste 0 997.6 1.9 84
2019-11-24 08:00:00 11.3 10 Noroeste 20 Noroeste 0 997.1 1.9 82
2019-11-24 07:00:00 10.7 6 Oeste 16 Oeste 0 995.9 0.6 85
2019-11-24 06:00:00 10.7 7 Oeste 15 Oeste 0 995.7 0.5 85
2019-11-24 05:00:00 10.7 6 Oeste 13 Oeste 0 995.2 0.2 84
2019-11-24 04:00:00 11.8 5 Noroeste 20 Noroeste 0 995.3 0.1 78
2019-11-24 03:00:00 12.4 10 Norte 24 Norte 0 995.2 -0.1 69
2019-11-24 02:00:00 12.5 7 Noroeste 19 Norte 0 995 0.2 75
2019-11-24 01:00:00 13 7 Noroeste 19 Norte 0 995.2 0.6 71
2019-11-24 00:00:00 13.2 8 Noroeste 18 Noroeste 0 995.3 1.3 73
2019-11-23 23:00:00 13.3 11 Noroeste 27 Oeste 0 994.8 1.3 80
2019-11-23 22:00:00 13.1 9 Oeste 22 Noroeste 0 994.6 2.1 84
2019-11-23 21:00:00 13.1 5 Oeste 21 Oeste 0 994 2.2 84
2019-11-23 20:00:00 13.2 9 Oeste 25 Oeste 0 993.5 2.4 84
2019-11-23 19:00:00 13.6 14 Oeste 26 Oeste 0 992.5 1.8 80
2019-11-23 18:00:00 14.3 12 Oeste 42 Oeste 0 991.8 1.3 76
2019-11-23 17:00:00 15.4 18 Oeste 39 Oeste 0 991.1 0.6 70
2019-11-23 16:00:00 15.3 18 Oeste 39 Oeste 0 990.7 0.2 65
2019-11-23 15:00:00 14.8 19 Oeste 40 Oeste 0 990.5 0.1 64
2019-11-23 14:00:00 16.1 17 Oeste 37 Oeste 0 990.5 0.8 62
2019-11-23 13:00:00 14.9 18 Oeste 39 Oeste 0 990.5 1.7 65
2019-11-23 12:00:00 15.1 18 Oeste 40 Noroeste 0 990.4 2.7 71
2019-11-23 11:00:00 14.4 22 Oeste 40 Oeste 0 989.7 2.8 76
2019-11-23 10:00:00 13.8 19 Oeste 39 Oeste 0 988.8 2.9 79
2019-11-23 09:00:00 12.6 15 Oeste 36 Oeste 0 987.7 2.6 88
2019-11-23 08:00:00 12.4 18 Oeste 46 Oeste 0 986.9 1.8 88
2019-11-23 07:00:00 13.4 19 Oeste 49 Noroeste 0.7 985.9 1.2 87
2019-11-23 06:00:00 14.8 18 Oeste 36 Oeste 0 985.1 0.7 82
2019-11-23 05:00:00 14.6 12 Oeste 32 Oeste 0 985.1 1.2 85
2019-11-23 04:00:00 14.8 15 Oeste 37 Oeste 0 984.7 0.5 82
2019-11-23 03:00:00 14.8 17 Oeste 37 Oeste 0 984.4 1 85
2019-11-23 02:00:00 14.8 18 Oeste 45 Oeste 0 983.9 0.5 84
2019-11-23 01:00:00 15 17 Oeste 41 Oeste 0 984.2 1.3 87
2019-11-23 00:00:00 15.3 22 Oeste 40 Oeste 0 983.4 1.3 86
2019-11-22 23:00:00 15.1 16 Oeste 36 Oeste 0 983.4 3 85
2019-11-22 22:00:00 15.3 16 Oeste 45 Oeste 0 982.9 2.5 89
2019-11-22 21:00:00 15.6 22 Oeste 73 Sudoeste 3 982.1 1.5 91
2019-11-22 20:00:00 17.3 42 Sudoeste 72 Sudoeste 0.8 980.4 -0.5 94
2019-11-22 19:00:00 17.1 38 Sudoeste 68 Sudoeste 1.2 980.4 -0.5 93
2019-11-22 18:00:00 17.4 37 Sudoeste 66 Sudoeste 0 980.6 -0.8 90
2019-11-22 17:00:00 17.6 31 Sudoeste 64 Sudoeste 0 980.9 -1.3 91
2019-11-22 16:00:00 17.5 31 Sudoeste 57 Sudoeste 0 980.9 -2.3 91
2019-11-22 15:00:00 17.1 30 Sudoeste 59 Sudoeste 0.2 981.4 -3 94
2019-11-22 14:00:00 15.7 36 Sudoeste 62 Sudoeste 0.2 982.2 -2.4 94
2019-11-22 13:00:00 15.8 31 Sudoeste 61 Sudoeste 0 983.2 -1 94
2019-11-22 12:00:00 15.8 30 Sudoeste 51 Sudoeste 0 984.4 -0.2 95
2019-11-22 11:00:00 15.8 22 Sudoeste 40 Sudoeste 0.1 984.6 -0.2 95
2019-11-22 10:00:00 16 20 Sudoeste 44 Sudoeste 0.3 984.2 -0.5 95
2019-11-22 09:00:00 15.6 25 Sudoeste 46 Sur 2.2 984.6 -0.1 95
2019-11-22 08:00:00 15.3 24 Sudoeste 47 Sudoeste 3.4 984.8 -0.6 94
2019-11-22 07:00:00 15.8 24 Sudoeste 53 Sudoeste 0.1 984.7 -1.2 95
2019-11-22 06:00:00 15.8 31 Sudoeste 53 Oeste 4.7 984.7 -1.6 94
2019-11-22 05:00:00 16 26 Oeste 44 Oeste 3.7 985.4 -1.6 95
2019-11-22 04:00:00 15.9 18 Sudoeste 41 Sudoeste 0.1 985.9 -1.5 95
2019-11-22 03:00:00 15.7 17 Sudoeste 37 Sudoeste 0 986.3 -1.5 94
2019-11-22 02:00:00 15.6 22 Sudoeste 35 Sudoeste 0.6 987 -1.3 94
2019-11-22 01:00:00 15.3 18 Sudoeste 33 Sudoeste 0.1 987.4 -1.2 94
2019-11-22 00:00:00 15.1 14 Sudoeste 35 Sudoeste 1 987.8 -0.8 94
2019-11-21 23:00:00 15.3 16 Sudoeste 30 Sur 0 988.3 0 92
2019-11-21 22:00:00 15.3 17 Sudoeste 26 Sudoeste 0 988.6 0.2 91
2019-11-21 21:00:00 15.1 15 Sudoeste 24 Sudoeste 0 988.6 0.5 93
2019-11-21 20:00:00 15 15 Sudoeste 24 Sudoeste 0 988.3 0.6 94
2019-11-21 19:00:00 14.7 15 Sudoeste 25 Sudoeste 0 988.4 0.8 93
2019-11-21 18:00:00 15 14 Sudoeste 24 Sudoeste 0 988.1 0.1 94
2019-11-21 17:00:00 14.8 15 Sudoeste 29 Sudoeste 2 987.7 -0.7 94
2019-11-21 16:00:00 14.6 18 Sudoeste 33 Sudoeste 1.9 987.6 -1.2 93
2019-11-21 15:00:00 15 17 Sudoeste 35 Sudoeste 3.1 988 -2 93
2019-11-21 14:00:00 15.2 20 Sudoeste 38 Sur 2.8 988.4 -1.4 92
2019-11-21 13:00:00 15.3 14 Sudoeste 31 Sudoeste 2.4 988.8 -0.8 93
2019-11-21 12:00:00 15.4 17 Sudoeste 33 Sudoeste 0.2 990 0.5 88
2019-11-21 11:00:00 15 15 Sudoeste 31 Sudoeste 0.7 989.8 0.7 92
2019-11-21 10:00:00 14.6 6 Sudoeste 19 Sudoeste 1 989.6 0.6 90
2019-11-21 09:00:00 14.2 12 Sudoeste 31 Sudoeste 1.5 989.5 0.7 92
2019-11-21 08:00:00 14.5 13 Sur 32 Sudoeste 0 989.1 -0.2 93
2019-11-21 07:00:00 14.5 16 Sudoeste 30 Sudoeste 0.2 989 -0.8 89
2019-11-21 06:00:00 14.1 13 Sudoeste 30 Sudoeste 0.2 988.8 -1 93
2019-11-21 05:00:00 14.1 15 Sudoeste 32 Sudoeste 0 989.3 -0.7 91
2019-11-21 04:00:00 14.1 16 Sudoeste 32 Sudoeste 0.1 989.8 -0.8 90
2019-11-21 03:00:00 13.8 16 Sudoeste 40 Oeste 1.3 989.8 -1 89
2019-11-21 02:00:00 13.7 10 Sudoeste 29 Sudoeste 1.1 990 -1.1 87
2019-11-21 01:00:00 14.4 14 Sudoeste 22 Sudoeste 0 990.6 -0.2 80
2019-11-21 00:00:00 13.8 7 Sudoeste 12 Sur 0 990.8 0.3 80
2019-11-20 23:00:00 13.4 5 Sudoeste 13 Sudoeste 0 991.1 1 79
2019-11-20 22:00:00 13.1 8 Sudoeste 13 Sudoeste 0 990.8 1.3 82
2019-11-20 21:00:00 13 8 Sudoeste 14 Sudoeste 0 990.5 1.6 82
2019-11-20 20:00:00 13 8 Sudoeste 14 Sudoeste 0 990.1 1.1 82
2019-11-20 19:00:00 13.3 11 Sudoeste 18 Sudoeste 0 989.5 0.5 89
2019-11-20 18:00:00 13.2 10 Sur 26 Sur 0 988.9 -0.2 91
2019-11-20 17:00:00 12.9 13 Sur 32 Sudeste 0 989 -0.4 89
2019-11-20 16:00:00 11.9 11 Sudeste 36 Sudeste 1.6 989 -1.4 91
2019-11-20 15:00:00 12.4 21 Sur 49 Sur 0.4 989.1 -1.8 88
2019-11-20 14:00:00 12.7 23 Sur 56 Sur 0.7 989.4 -2.6 89
2019-11-20 13:00:00 13 22 Sur 47 Sur 0.1 990.4 -1.2 86
2019-11-20 12:00:00 12.9 19 Sur 36 Sur 0.6 990.9 -0.3 88
2019-11-20 11:00:00 12.5 15 Sur 33 Sudoeste 0.8 992 0.8 85
2019-11-20 10:00:00 13.1 17 Sur 33 Sur 0.3 991.6 0.3 85
2019-11-20 09:00:00 12.7 14 Sur 27 Sur 0.2 991.2 -0.1 86
2019-11-20 08:00:00 11.5 10 Sur 19 Sur 0.1 991.2 -0.6 89
2019-11-20 07:00:00 11.2 8 Sudeste 13 Sudeste 0 991.3 -1.1 79
2019-11-20 06:00:00 10.1 5 Sudeste 8 Este 0 991.3 -1.3 80
2019-11-20 05:00:00 10.7 3 Este 5 Este 0 991.8 -1.3 75
2019-11-20 04:00:00 10.7 0 Calma 4 Este 0 992.4 -1.2 80
2019-11-20 03:00:00 11.1 0 Calma 4 Oeste 0 992.6 -1.1 79
2019-11-20 02:00:00 11.5 4 Oeste 7 Oeste 0 993.1 -0.8 78
2019-11-20 01:00:00 11.3 0 Calma 5 Noroeste 0 993.6 -0.6 76
2019-11-20 00:00:00 12 4 Noroeste 7 Noroeste 0 993.7 -0.6 72
2019-11-19 23:00:00 12.2 4 Noroeste 9 Noroeste 0 993.9 -0.5 67
2019-11-19 22:00:00 12.3 6 Noroeste 11 Oeste 0 994.2 0 62
2019-11-19 21:00:00 12.6 4 Noroeste 10 Noroeste 0 994.3 0 61
2019-11-19 20:00:00 13.4 4 Noroeste 9 Norte 0 994.4 0 75
2019-11-19 19:00:00 13.8 3 Nordeste 5 Sur 0 994.2 -0.6 76
2019-11-19 18:00:00 14.5 2 Sur 14 Sudoeste 0 994.3 -0.8 76
2019-11-19 17:00:00 14.2 9 Sudoeste 15 Sudoeste 0 994.4 -1.2 75
2019-11-19 16:00:00 14.2 8 Sudoeste 21 Sudoeste 0 994.8 -1.4 72
2019-11-19 15:00:00 15 13 Sudoeste 23 Sudoeste 0 995.1 -2.1 68
2019-11-19 14:00:00 14.3 10 Sudoeste 21 Sudoeste 0 995.6 -1.8 69
2019-11-19 13:00:00 14.4 10 Sudoeste 19 Sudoeste 0 996.2 -1.4 63
2019-11-19 12:00:00 15.1 11 Sudoeste 20 Sudoeste 0 997.2 -0.1 71
2019-11-19 11:00:00 13.2 11 Sudoeste 18 Sudoeste 0 997.4 0.5 81
2019-11-19 10:00:00 13.1 10 Sudoeste 17 Sudoeste 0 997.6 1 84
2019-11-19 09:00:00 12 7 Sur 16 Sur 0 997.3 0.7 88
2019-11-19 08:00:00 11.6 8 Sur 15 Sur 0 996.9 0.4 90
2019-11-19 07:00:00 11.8 8 Sudoeste 14 Sudoeste 0 996.6 0.3 88
2019-11-19 06:00:00 11.2 7 Sudoeste 12 Sur 0 996.6 0.3 88
2019-11-19 05:00:00 11.2 7 Sudoeste 12 Oeste 0 996.5 -0.1 80
2019-11-19 04:00:00 11.3 6 Oeste 11 Oeste 0 996.3 -0.6 81
2019-11-19 03:00:00 11.5 7 Oeste 11 Oeste 0 996.3 -0.9 81
2019-11-19 02:00:00 11.9 8 Oeste 13 Oeste 0 996.6 -0.9 75
2019-11-19 01:00:00 12.2 8 Oeste 15 Oeste 0 996.9 -0.1 77
2019-11-19 00:00:00 12.4 9 Oeste 16 Oeste 0 997.2 0.4 79
2019-11-18 23:00:00 12.2 9 Oeste 16 Oeste 0 997.5 1.2 79
2019-11-18 22:00:00 11.9 9 Oeste 17 Oeste 0 997 1.2 78
2019-11-18 21:00:00 12 9 Oeste 17 Oeste 0 996.8 1.6 75
2019-11-18 20:00:00 12.2 10 Oeste 19 Oeste 0 996.3 1.3 71
2019-11-18 19:00:00 11.6 9 Oeste 18 Oeste 0 995.8 1.1 73
2019-11-18 18:00:00 13.1 11 Oeste 25 Oeste 0 995.2 0.4 69
2019-11-18 17:00:00 14.6 11 Oeste 23 Noroeste 0 995 0.3 63
2019-11-18 16:00:00 15 9 Oeste 23 Noroeste 0 994.7 -0.2 59
2019-11-18 15:00:00 14.6 12 Oeste 25 Oeste 0 994.8 -0.6 60
2019-11-18 14:00:00 14.2 8 Noroeste 25 Oeste 0 994.7 -0.8 61
2019-11-18 13:00:00 13.8 10 Noroeste 27 Oeste 0 994.9 0.1 63
2019-11-18 12:00:00 14.2 12 Noroeste 24 Oeste 0 995.4 1.2 65
2019-11-18 11:00:00 11.6 11 Noroeste 26 Oeste 0 995.5 2.2 73
2019-11-18 10:00:00 10.5 9 Noroeste 26 Noroeste 0 994.8 2.1 77
2019-11-18 09:00:00 9.5 12 Noroeste 32 Noroeste 0 994.2 1.9 80
2019-11-18 08:00:00 9.4 15 Noroeste 37 Oeste 0 993.3 1.5 82
2019-11-18 07:00:00 10 13 Noroeste 36 Oeste 0 992.7 0.9 77
2019-11-18 06:00:00 11.3 15 Noroeste 40 Oeste 0 992.3 0.1 72
2019-11-18 05:00:00 12.6 20 Noroeste 48 Oeste 0.1 991.8 -1.2 79
2019-11-18 04:00:00 14 24 Oeste 61 Oeste 1.8 991.8 -2.1 92
2019-11-18 03:00:00 14.9 20 Oeste 40 Oeste 1.6 992.2 -2 92
2019-11-18 02:00:00 15.3 22 Oeste 43 Sudoeste 0 993 -2 89
2019-11-18 01:00:00 15.1 24 Oeste 43 Oeste 0 993.9 -1.6 90
2019-11-18 00:00:00 14.9 22 Oeste 45 Oeste 0 994.2 -1.4 90
2019-11-17 23:00:00 14.9 19 Oeste 33 Sudoeste 0 995 -1 89
2019-11-17 22:00:00 15 17 Sudoeste 33 Oeste 0 995.5 -0.7 91
2019-11-17 21:00:00 15 19 Sudoeste 37 Sudoeste 0 995.6 -0.8 91
2019-11-17 20:00:00 15 20 Sudoeste 40 Sudoeste 0 996 -0.3 91
2019-11-17 19:00:00 14.9 21 Sudoeste 34 Sudoeste 0 996.2 -0.7 92
2019-11-17 18:00:00 14.9 18 Sudoeste 39 Sudoeste 0 996.4 -1.1 92
2019-11-17 17:00:00 14.7 17 Sudoeste 31 Sudoeste 0 996.3 -1.7 94
2019-11-17 16:00:00 14 19 Sudoeste 40 Oeste 2 996.9 -1.8 93
2019-11-17 15:00:00 13.2 18 Sudoeste 43 Sudoeste 4.7 997.5 -2.1 92
2019-11-17 14:00:00 13.1 23 Sudoeste 38 Sudoeste 0.6 998 -1.8 89
2019-11-17 13:00:00 13.4 21 Sudoeste 37 Sudoeste 0.1 998.7 -1 83
2019-11-17 12:00:00 13.8 18 Sudoeste 33 Oeste 0 999.6 0.3 70
2019-11-17 11:00:00 13.6 14 Sudoeste 24 Sudoeste 0 999.8 0.7 69
2019-11-17 10:00:00 12.8 8 Sudoeste 13 Sudoeste 0 999.7 1.1 69
2019-11-17 09:00:00 11.3 6 Sudoeste 10 Sudoeste 0 999.3 1 71
2019-11-17 08:00:00 10.7 5 Oeste 8 Noroeste 0 999.1 0.8 64
2019-11-17 07:00:00 10.2 3 Noroeste 7 Noroeste 0 998.6 -0.1 60
2019-11-17 06:00:00 10.6 4 Noroeste 13 Norte 0 998.3 -0.3 58
2019-11-17 05:00:00 10.8 5 Noroeste 12 Norte 0 998.3 -0.4 58
2019-11-17 04:00:00 11.3 7 Norte 12 Norte 0 998.7 -0.3 65
2019-11-17 03:00:00 11.3 6 Noroeste 14 Oeste 0 998.6 -0.3 60
2019-11-17 02:00:00 11.2 8 Oeste 14 Oeste 0 998.7 -0.5 68
2019-11-17 01:00:00 10.9 8 Oeste 16 Oeste 0 999 -0.1 68
2019-11-17 00:00:00 11.1 9 Oeste 16 Oeste 0 998.9 0.3 66
2019-11-16 23:00:00 10.8 8 Oeste 15 Oeste 0 999.2 1 64
2019-11-16 22:00:00 10.9 9 Oeste 18 Oeste 0 999.1 1.3 62
2019-11-16 21:00:00 10.7 10 Oeste 19 Oeste 0 998.6 1.3 63
2019-11-16 20:00:00 10.4 10 Oeste 19 Oeste 0 998.2 1.1 64
2019-11-16 19:00:00 10.3 8 Oeste 17 Oeste 0 997.8 1.4 67
2019-11-16 18:00:00 11.5 9 Oeste 27 Oeste 0 997.3 1.2 58
2019-11-16 17:00:00 12.9 14 Oeste 29 Oeste 0 997.1 1.1 53
2019-11-16 16:00:00 13.6 16 Oeste 30 Oeste 0 996.4 0.3 50
2019-11-16 15:00:00 14.1 15 Oeste 28 Oeste 0 996.1 -0.6 48
2019-11-16 14:00:00 14.2 7 Oeste 24 Oeste 0 996 -0.3 42
2019-11-16 13:00:00 13.1 9 Oeste 20 Oeste 0 996.1 0.6 44
2019-11-16 12:00:00 11.9 7 Oeste 15 Oeste 0 996.7 2.4 49
2019-11-16 11:00:00 9.8 4 Norte 12 Norte 0 996.3 3 57
2019-11-16 10:00:00 8.3 5 Norte 11 Norte 0 995.5 3 62
2019-11-16 09:00:00 6.7 3 Nordeste 17 Norte 0 994.3 2.8 68
2019-11-16 08:00:00 6.9 7 Norte 27 Norte 0 993.3 2.3 64
2019-11-16 07:00:00 6.7 8 Norte 22 Norte 0 992.5 1.6 69
2019-11-16 06:00:00 7 8 Norte 21 Noroeste 0 991.5 0.7 68
2019-11-16 05:00:00 7.7 8 Noroeste 21 Norte 0 991 0.3 71
2019-11-16 04:00:00 8.2 7 Noroeste 26 Norte 0 990.9 0.5 67
2019-11-16 03:00:00 8.5 8 Noroeste 20 Norte 0 990.8 0.7 62
2019-11-16 02:00:00 9 9 Noroeste 18 Oeste 0 990.7 0.8 61
2019-11-16 01:00:00 9.6 8 Noroeste 22 Noroeste 0 990.4 1 59
2019-11-16 00:00:00 10.1 9 Noroeste 22 Noroeste 0 990.1 1.2 59
2019-11-15 23:00:00 10.6 9 Noroeste 23 Noroeste 0 989.9 1.5 56
2019-11-15 22:00:00 10.9 10 Noroeste 23 Oeste 0 989.4 1.1 53
2019-11-15 21:00:00 11.3 10 Noroeste 31 Oeste 0 988.9 0.9 51
2019-11-15 20:00:00 11.5 17 Oeste 32 Oeste 0 988.4 0.3 49
2019-11-15 19:00:00 11.5 17 Oeste 33 Noroeste 0 988.3 0.5 50
2019-11-15 18:00:00 11.9 17 Oeste 39 Oeste 0 988 0.3 49
2019-11-15 17:00:00 12.9 19 Oeste 44 Oeste 0 988.1 0 46
2019-11-15 16:00:00 13.2 22 Oeste 46 Oeste 0 987.8 -1.2 47
2019-11-15 15:00:00 13.2 17 Noroeste 43 Oeste 0 987.7 -2 49
2019-11-15 14:00:00 13 24 Oeste 42 Oeste 0 988.1 -1.9 48
2019-11-15 13:00:00 12.7 23 Noroeste 44 Oeste 0 989 -1.1 50
2019-11-15 12:00:00 12.7 17 Oeste 39 Noroeste 0 989.7 -0.1 54
2019-11-15 11:00:00 12 20 Oeste 38 Noroeste 0 990 0.7 56
2019-11-15 10:00:00 11.1 13 Noroeste 31 Oeste 0 990.1 0.8 59
2019-11-15 09:00:00 10.4 14 Oeste 28 Oeste 0 989.8 0.7 64
2019-11-15 08:00:00 10.4 12 Noroeste 23 Oeste 0 989.3 0.3 65
2019-11-15 07:00:00 10.3 10 Noroeste 31 Noroeste 0 989.3 -0.2 64
2019-11-15 06:00:00 10.7 15 Noroeste 31 Noroeste 0.1 989.1 -0.7 65
2019-11-15 05:00:00 11.1 13 Noroeste 28 Oeste 0 989 -1 66
2019-11-15 04:00:00 11.6 12 Noroeste 26 Oeste 0 989.5 -0.9 67
2019-11-15 03:00:00 12 12 Noroeste 36 Oeste 0 989.8 -0.8 71
2019-11-15 02:00:00 12 17 Oeste 35 Noroeste 0 990 -0.7 67
2019-11-15 01:00:00 12.1 18 Noroeste 35 Oeste 0 990.4 -0.1 68
2019-11-15 00:00:00 12.2 15 Oeste 29 Oeste 0 990.6 0 68
2019-11-14 23:00:00 12.3 17 Oeste 39 Oeste 0 990.7 0.5 68
2019-11-14 22:00:00 12 19 Oeste 37 Noroeste 0 990.5 0.8 69
2019-11-14 21:00:00 12.1 19 Noroeste 39 Oeste 0 990.6 1.1 68
2019-11-14 20:00:00 12.4 16 Noroeste 35 Oeste 0 990.2 0.8 68
2019-11-14 19:00:00 12.9 18 Noroeste 33 Noroeste 0 989.7 0.5 72
2019-11-14 18:00:00 12.7 18 Noroeste 41 Noroeste 0 989.5 0.1 72
2019-11-14 17:00:00 12.6 15 Noroeste 39 Oeste 0 989.4 -0.3 73
2019-11-14 16:00:00 12.7 19 Oeste 37 Oeste 0 989.2 -1.4 76
2019-11-14 15:00:00 12.1 15 Noroeste 50 Oeste 1.4 989.4 -1.8 89
2019-11-14 14:00:00 13.9 19 Oeste 49 Noroeste 1 989.7 -2.3 91
2019-11-14 13:00:00 12.7 29 Noroeste 62 Oeste 1.3 990.6 -1.7 88
2019-11-14 12:00:00 15.5 24 Oeste 45 Sudoeste 0 991.2 -1.6 73
2019-11-14 11:00:00 15.8 25 Oeste 46 Oeste 0 992 -0.6 68
2019-11-14 10:00:00 15.1 20 Oeste 34 Oeste 0 992.3 -0.3 71
2019-11-14 09:00:00 13.4 14 Oeste 33 Noroeste 0 992.8 -0.1 73
2019-11-14 08:00:00 13.3 16 Oeste 38 Noroeste 0 992.6 -0.6 75
2019-11-14 07:00:00 13.1 8 Noroeste 23 Noroeste 0 992.6 -0.8 77
2019-11-14 06:00:00 13.1 8 Noroeste 18 Noroeste 0 992.9 -1.2 76
2019-11-14 05:00:00 13.4 7 Noroeste 17 Oeste 0 993.2 -1.4 82
2019-11-14 04:00:00 13.8 7 Noroeste 17 Noroeste 0 993.4 -1.6 85
2019-11-14 03:00:00 14.2 8 Noroeste 22 Oeste 0 994.1 -0.7 88
2019-11-14 02:00:00 15.2 11 Oeste 28 Oeste 0 994.6 -1.5 91
2019-11-14 01:00:00 15.1 13 Oeste 24 Oeste 0 995 -0.8 90
2019-11-14 00:00:00 15.5 12 Sudoeste 23 Sudoeste 0 994.8 -0.9 88
2019-11-13 23:00:00 15.7 13 Oeste 23 Oeste 0 996.1 0.4 88
2019-11-13 22:00:00 15.5 12 Oeste 21 Sudoeste 0 995.8 0.4 88
2019-11-13 21:00:00 15.6 12 Oeste 22 Oeste 0 995.7 0.8 90
2019-11-13 20:00:00 15.8 13 Oeste 25 Oeste 0 995.7 0.8 90
2019-11-13 19:00:00 15.8 12 Oeste 29 Sudoeste 0 995.4 0.5 88
2019-11-13 18:00:00 17.1 16 Oeste 34 Sudoeste 0 994.9 0 84
2019-11-13 17:00:00 17.8 18 Oeste 32 Sudoeste 0 994.9 -0.7 81
2019-11-13 16:00:00 18.4 18 Oeste 38 Noroeste 0 994.9 -1 80
2019-11-13 15:00:00 17.4 19 Oeste 41 Oeste 0.1 994.9 -1.6 80
2019-11-13 14:00:00 16.3 18 Oeste 39 Oeste 0.1 995.6 -0.6 85
2019-11-13 13:00:00 17.8 23 Oeste 41 Oeste 0 995.9 0.2 66
2019-11-13 12:00:00 17.4 19 Oeste 34 Oeste 0 996.5 1.1 78
2019-11-13 11:00:00 17.2 15 Oeste 30 Oeste 0 996.2 1.1 81
2019-11-13 10:00:00 15.9 15 Oeste 31 Oeste 0 995.7 1.1 85
2019-11-13 09:00:00 15 11 Oeste 22 Oeste 0 995.4 0.7 93
2019-11-13 08:00:00 14.8 10 Oeste 23 Sudoeste 0.9 995.1 0.1 93
2019-11-13 07:00:00 14.8 9 Oeste 21 Oeste 0 994.6 -0.5 89
2019-11-13 06:00:00 14.4 11 Oeste 23 Oeste 0 994.7 -0.9 88
2019-11-13 05:00:00 14 10 Oeste 22 Sudoeste 0 995 -1.1 88
2019-11-13 04:00:00 13.7 9 Oeste 22 Oeste 0 995.1 -1 85
2019-11-13 03:00:00 13.8 8 Oeste 23 Oeste 0 995.6 -0.5 80
2019-11-13 02:00:00 13.9 14 Oeste 28 Oeste 0 996.1 -0.1 77
2019-11-13 01:00:00 13.6 11 Oeste 22 Oeste 0 996.1 0.2 80
2019-11-13 00:00:00 13.8 11 Oeste 24 Oeste 0 996.1 0.4 76
2019-11-12 23:00:00 14.3 11 Oeste 24 Noroeste 0 996.2 0.5 71
2019-11-12 22:00:00 14.5 12 Oeste 23 Oeste 0 995.9 0.4 77
2019-11-12 21:00:00 14.5 13 Oeste 26 Oeste 0 995.7 0.6 82
2019-11-12 20:00:00 14.3 14 Oeste 31 Oeste 0 995.7 0.7 72
2019-11-12 19:00:00 14.7 15 Oeste 28 Oeste 0 995.5 0.6 69
2019-11-12 18:00:00 15.4 12 Oeste 27 Oeste 0 995.1 -0.1 58
2019-11-12 17:00:00 17.2 16 Oeste 30 Oeste 0 995 -0.2 58
2019-11-12 16:00:00 17.1 17 Oeste 32 Oeste 0 994.9 -1.1 64
2019-11-12 15:00:00 17.6 14 Oeste 30 Oeste 0 995.2 -1 65
2019-11-12 14:00:00 18.5 12 Oeste 33 Oeste 0 995.2 -1 63
2019-11-12 13:00:00 17.2 8 Noroeste 23 Oeste 0 996 0.1 60
2019-11-12 12:00:00 16 10 Noroeste 21 Oeste 0 996.2 1.1 68
2019-11-12 11:00:00 14.7 6 Noroeste 17 Oeste 0 996.2 1.4 75
2019-11-12 10:00:00 13.1 9 Norte 20 Norte 0 995.9 1.3 79
2019-11-12 09:00:00 12.4 10 Norte 25 Norte 0 995.1 1 83
2019-11-12 08:00:00 12 8 Noroeste 20 Norte 0 994.8 0.2 84
2019-11-12 07:00:00 12.6 6 Noroeste 21 Norte 0 994.6 -0.1 82
2019-11-12 06:00:00 13.7 11 Norte 22 Norte 0 994.1 -1 79
2019-11-12 05:00:00 12.9 10 Norte 25 Noroeste 0 994.6 -0.6 83
2019-11-12 04:00:00 13.1 8 Norte 22 Norte 0 994.7 -0.7 83
2019-11-12 03:00:00 13.7 9 Noroeste 22 Noroeste 0 995.1 -0.9 85
2019-11-12 02:00:00 14.3 10 Noroeste 20 Noroeste 0 995.2 -1.2 84
2019-11-12 01:00:00 15 8 Noroeste 18 Oeste 0 995.4 -0.9 86
2019-11-12 00:00:00 15.7 11 Oeste 22 Oeste 0 996 -0.2 93
2019-11-11 23:00:00 15.8 10 Oeste 23 Oeste 0 996.4 0.4 91
2019-11-11 22:00:00 15.9 10 Oeste 19 Sudoeste 0.1 996.3 0.3 93
2019-11-11 21:00:00 16 9 Oeste 26 Oeste 0 996.2 0.1 92
2019-11-11 20:00:00 15.9 15 Oeste 29 Sudoeste 0 996 -0.1 91
2019-11-11 19:00:00 15.9 16 Oeste 30 Oeste 0 996 -0.5 90
2019-11-11 18:00:00 15.7 12 Oeste 26 Oeste 0 996.1 -0.9 88
2019-11-11 17:00:00 15.5 12 Oeste 25 Oeste 0 996.1 -1.2 88
2019-11-11 16:00:00 15.5 11 Oeste 21 Noroeste 0 996.5 -1.1 88
2019-11-11 15:00:00 15.7 10 Oeste 26 Oeste 0 997 -1.4 90
2019-11-11 14:00:00 15.3 11 Oeste 24 Sudoeste 0 997.3 -1.7 90
2019-11-11 13:00:00 15 11 Oeste 22 Sudoeste 0 997.6 -1.3 91
2019-11-11 12:00:00 14.2 8 Oeste 14 Oeste 0.1 998.4 -0.6 92
2019-11-11 11:00:00 13.4 6 Oeste 18 Oeste 0 999 0.3 92
2019-11-11 10:00:00 13.1 3 Oeste 9 Oeste 0.1 998.9 0.5 91
2019-11-11 09:00:00 12.6 2 Norte 9 Oeste 0.1 999 0.1 91
2019-11-11 08:00:00 12.6 3 Noroeste 13 Norte 0.2 998.7 0 92
2019-11-11 07:00:00 12.7 4 Noroeste 13 Noroeste 0.5 998.4 -0.6 92
2019-11-11 06:00:00 12.5 6 Noroeste 24 Oeste 0.1 998.9 -0.8 92
2019-11-11 05:00:00 12.6 13 Oeste 27 Oeste 0.3 998.7 -1.2 92
2019-11-11 04:00:00 12.7 10 Noroeste 34 Oeste 0.1 999 -1.1 89
2019-11-11 03:00:00 13.9 15 Oeste 34 Noroeste 0 999.7 -0.8 76
2019-11-11 02:00:00 13.9 18 Oeste 42 Oeste 0 999.9 -0.5 75
2019-11-11 01:00:00 13.9 22 Oeste 40 Oeste 0 1000.1 0.4 71
2019-11-11 00:00:00 13.9 19 Oeste 37 Noroeste 0 1000.5 1 70